createdAt,value
2023-01-18T00:01:06.884Z,5.40
2023-01-18T00:03:35.430Z,5.40
2023-01-18T00:06:04.130Z,5.40
2023-01-18T00:08:33.727Z,5.40
2023-01-18T00:11:09.941Z,5.40
2023-01-18T00:13:37.417Z,5.40
2023-01-18T00:16:21.650Z,5.40
2023-01-18T00:18:56.457Z,5.40
2023-01-18T00:21:24.791Z,5.40
2023-01-18T00:23:51.831Z,5.50
2023-01-18T00:26:19.116Z,5.50
2023-01-18T00:28:46.403Z,5.40
2023-01-18T00:31:20.983Z,5.30
2023-01-18T00:33:49.651Z,5.40
2023-01-18T00:36:17.619Z,5.40
2023-01-18T00:38:51.495Z,5.40
2023-01-18T00:41:19.205Z,5.40
2023-01-18T00:43:46.514Z,5.40
2023-01-18T00:46:20.314Z,5.40
2023-01-18T00:48:48.296Z,5.40
2023-01-18T00:51:21.847Z,5.50
2023-01-18T00:53:48.837Z,5.40
2023-01-18T00:56:19.768Z,5.50
2023-01-18T00:58:46.698Z,5.50
2023-01-18T01:01:14.576Z,5.50
2023-01-18T01:04:00.209Z,5.50
2023-01-18T01:06:47.274Z,5.40
2023-01-18T01:09:14.341Z,5.40
2023-01-18T01:12:01.217Z,5.40
2023-01-18T01:14:46.969Z,5.40
2023-01-18T01:17:32.391Z,5.50
2023-01-18T01:20:17.921Z,5.40
2023-01-18T01:23:03.269Z,5.30
2023-01-18T01:25:48.443Z,5.20
2023-01-18T01:28:15.368Z,5.20
2023-01-18T01:30:42.313Z,5.10
2023-01-18T01:33:09.223Z,5.10
2023-01-18T01:35:36.106Z,5.10
2023-01-18T01:38:03.095Z,5.10
2023-01-18T01:40:29.976Z,5.10
2023-01-18T01:42:57.521Z,5.20
2023-01-18T01:45:27.934Z,5.20
2023-01-18T01:47:57.104Z,5.30
2023-01-18T01:50:36.738Z,5.30
2023-01-18T01:53:04.457Z,5.30
2023-01-18T01:55:40.257Z,5.40
2023-01-18T01:58:25.467Z,5.30
2023-01-18T02:00:54.360Z,5.30
2023-01-18T02:03:23.731Z,5.40
2023-01-18T02:05:59.638Z,5.50
2023-01-18T02:08:28.382Z,5.60
2023-01-18T02:10:55.295Z,5.60
2023-01-18T02:13:24.390Z,5.50
2023-01-18T02:16:08.350Z,5.50
2023-01-18T02:18:57.567Z,5.60
2023-01-18T02:21:58.422Z,5.60
2023-01-18T02:24:37.713Z,5.70
2023-01-18T02:27:22.894Z,5.80
2023-01-18T02:29:58.676Z,5.90
2023-01-18T02:33:01.979Z,6.10
2023-01-18T02:35:37.641Z,6.20
2023-01-18T02:38:15.630Z,6.30
2023-01-18T02:40:57.279Z,6.30
2023-01-18T02:43:45.778Z,6.40
2023-01-18T02:46:31.666Z,6.50
2023-01-18T02:49:06.632Z,6.50
2023-01-18T02:51:34.070Z,6.50
2023-01-18T02:54:03.355Z,6.60
2023-01-18T02:56:44.718Z,6.60
2023-01-18T02:59:21.856Z,6.60
2023-01-18T03:02:00.915Z,6.60
2023-01-18T03:04:32.965Z,6.60
2023-01-18T03:07:16.206Z,6.70
2023-01-18T03:09:44.092Z,6.70
2023-01-18T03:12:20.755Z,6.70
2023-01-18T03:15:13.164Z,6.70
2023-01-18T03:17:48.525Z,6.70
2023-01-18T03:20:19.638Z,6.70
2023-01-18T03:23:14.736Z,6.80
2023-01-18T03:25:44.793Z,6.80
2023-01-18T03:28:54.695Z,6.70
2023-01-18T03:32:03.287Z,6.80
2023-01-18T03:34:56.078Z,6.80
2023-01-18T03:37:37.847Z,6.80
2023-01-18T03:40:15.742Z,6.80
2023-01-18T03:43:01.821Z,6.80
2023-01-18T03:45:39.666Z,6.80
2023-01-18T03:48:08.853Z,6.80
2023-01-18T03:51:16.712Z,6.80
2023-01-18T03:54:04.789Z,6.80
2023-01-18T03:56:53.211Z,6.80
2023-01-18T03:59:21.723Z,6.80
2023-01-18T04:01:49.453Z,6.80
2023-01-18T04:04:16.358Z,6.80
2023-01-18T04:06:43.229Z,6.80
2023-01-18T04:09:11.947Z,6.80
2023-01-18T04:11:38.851Z,6.80
2023-01-18T04:14:06.292Z,6.70
2023-01-18T04:16:33.345Z,6.70
2023-01-18T04:19:00.213Z,6.70
2023-01-18T04:21:27.129Z,6.70
2023-01-18T04:23:54.045Z,6.70
2023-01-18T04:26:20.927Z,6.70
2023-01-18T04:28:47.815Z,6.70
2023-01-18T04:31:14.726Z,6.70
2023-01-18T04:33:41.649Z,6.70
2023-01-18T04:36:08.969Z,6.70
2023-01-18T04:38:36.049Z,6.70
2023-01-18T04:41:04.563Z,6.70
2023-01-18T04:43:31.767Z,6.70
2023-01-18T04:45:58.818Z,6.70
2023-01-18T04:48:26.285Z,6.80
2023-01-18T04:50:53.646Z,6.80
2023-01-18T04:53:21.273Z,6.70
2023-01-18T04:55:48.599Z,6.80
2023-01-18T04:58:15.525Z,6.80
2023-01-18T05:00:42.469Z,6.80
2023-01-18T05:03:11.149Z,6.80
2023-01-18T05:05:38.159Z,6.80
2023-01-18T05:08:05.083Z,6.80
2023-01-18T05:10:33.671Z,6.70
2023-01-18T05:13:01.178Z,6.70
2023-01-18T05:15:28.381Z,6.70
2023-01-18T05:17:55.256Z,6.70
2023-01-18T05:20:22.164Z,6.70
2023-01-18T05:22:49.028Z,6.70
2023-01-18T05:25:16.023Z,6.70
2023-01-18T05:27:42.919Z,6.70
2023-01-18T05:30:10.893Z,6.70
2023-01-18T05:32:38.131Z,6.70
2023-01-18T05:37:46.561Z,6.60
2023-01-18T05:40:13.648Z,6.60
2023-01-18T05:42:40.582Z,6.50
2023-01-18T05:45:08.073Z,6.50
2023-01-18T05:47:35.050Z,6.50
2023-01-18T05:50:02.019Z,6.50
2023-01-18T05:52:28.898Z,6.50
2023-01-18T05:54:55.796Z,6.40
2023-01-18T05:57:22.723Z,6.40
2023-01-18T05:59:49.616Z,6.40
2023-01-18T06:02:16.627Z,6.40
2023-01-18T06:04:44.437Z,6.30
2023-01-18T06:07:11.999Z,6.30
2023-01-18T06:09:38.840Z,6.30
2023-01-18T06:12:06.160Z,6.30
2023-01-18T06:14:33.175Z,6.30
2023-01-18T06:17:01.784Z,6.30
2023-01-18T06:19:28.680Z,6.30
2023-01-18T06:21:55.713Z,6.40
2023-01-18T06:24:22.608Z,6.40
2023-01-18T06:26:49.459Z,6.40
2023-01-18T06:29:16.338Z,6.40
2023-01-18T06:31:43.337Z,6.30
2023-01-18T06:34:10.309Z,6.30
2023-01-18T06:36:38.594Z,6.20
2023-01-18T06:39:06.103Z,6.20
2023-01-18T06:41:33.071Z,6.30
2023-01-18T06:44:00.022Z,6.20
2023-01-18T06:46:26.966Z,6.20
2023-01-18T06:48:53.834Z,6.00
2023-01-18T06:51:22.149Z,5.90
2023-01-18T06:53:50.148Z,5.90
2023-01-18T06:56:17.077Z,6.00
2023-01-18T06:58:44.907Z,6.00
2023-01-18T07:01:11.918Z,6.00
2023-01-18T07:03:39.073Z,6.10
2023-01-18T07:06:07.572Z,6.10
2023-01-18T07:08:35.714Z,6.20
2023-01-18T07:11:08.266Z,6.20
2023-01-18T07:13:35.734Z,6.20
2023-01-18T07:16:02.672Z,6.20
2023-01-18T07:18:30.657Z,6.30
2023-01-18T07:20:58.576Z,6.30
2023-01-18T07:23:25.898Z,6.30
2023-01-18T07:26:07.569Z,6.30
2023-01-18T07:28:36.290Z,6.20
2023-01-18T07:31:05.738Z,6.20
2023-01-18T07:33:32.959Z,6.10
2023-01-18T07:35:59.951Z,6.10
2023-01-18T07:38:28.068Z,6.00
2023-01-18T07:41:02.265Z,6.00
2023-01-18T07:43:33.449Z,6.00
2023-01-18T07:46:01.442Z,6.00
2023-01-18T07:48:29.058Z,5.90
2023-01-18T07:50:57.988Z,5.90
2023-01-18T07:53:26.547Z,5.80
2023-01-18T07:55:54.419Z,5.80
2023-01-18T07:58:21.777Z,5.80
2023-01-18T08:00:48.727Z,5.80
2023-01-18T08:03:17.852Z,5.90
2023-01-18T08:05:45.900Z,6.00
2023-01-18T08:08:15.129Z,6.00
2023-01-18T08:10:42.693Z,6.10
2023-01-18T08:13:10.716Z,6.10
2023-01-18T08:15:39.273Z,6.10
2023-01-18T08:18:08.212Z,6.00
2023-01-18T08:20:35.509Z,6.00
2023-01-18T08:23:02.753Z,6.00
2023-01-18T08:25:33.147Z,6.00
2023-01-18T08:28:01.797Z,6.10
2023-01-18T08:30:37.860Z,6.10
2023-01-18T08:33:05.533Z,6.20
2023-01-18T08:35:34.943Z,6.20
2023-01-18T08:38:02.357Z,6.30
2023-01-18T08:40:30.456Z,6.40
2023-01-18T08:42:59.995Z,6.60
2023-01-18T08:45:27.568Z,6.70
2023-01-18T08:47:59.152Z,6.90
2023-01-18T08:50:26.107Z,7.40
2023-01-18T08:52:53.785Z,8.00
2023-01-18T08:55:22.080Z,8.50
2023-01-18T08:57:50.043Z,8.50
2023-01-18T09:00:17.905Z,8.30
2023-01-18T09:02:44.825Z,8.00
2023-01-18T09:05:11.762Z,7.90
2023-01-18T09:07:38.700Z,7.70
2023-01-18T09:10:06.049Z,7.60
2023-01-18T09:12:34.881Z,7.60
2023-01-18T09:15:02.107Z,7.60
2023-01-18T09:17:29.152Z,7.90
2023-01-18T09:19:56.023Z,8.30
2023-01-18T09:22:24.276Z,8.80
2023-01-18T09:24:51.869Z,9.00
2023-01-18T09:27:18.962Z,8.90
2023-01-18T09:29:52.422Z,8.70
2023-01-18T09:32:22.378Z,8.50
2023-01-18T09:34:50.824Z,8.30
2023-01-18T09:37:21.064Z,8.10
2023-01-18T09:39:52.114Z,7.90
2023-01-18T09:42:22.697Z,7.70
2023-01-18T09:44:56.871Z,7.50
2023-01-18T09:47:27.689Z,7.30
2023-01-18T09:50:16.927Z,7.30
2023-01-18T09:52:46.764Z,7.20
2023-01-18T09:55:13.604Z,7.10
2023-01-18T09:58:02.900Z,7.00
2023-01-18T10:00:34.259Z,6.90
2023-01-18T10:03:10.893Z,6.90
2023-01-18T10:06:08.483Z,6.90
2023-01-18T10:08:42.078Z,6.90
2023-01-18T10:11:19.064Z,6.90
2023-01-18T10:14:11.432Z,6.90
2023-01-18T10:16:38.354Z,7.00
2023-01-18T10:19:15.385Z,7.00
2023-01-18T10:21:51.483Z,7.10
2023-01-18T10:24:46.267Z,7.20
2023-01-18T10:27:40.511Z,7.20
2023-01-18T10:30:11.230Z,7.20
2023-01-18T10:32:41.462Z,7.20
2023-01-18T10:35:23.890Z,7.30
2023-01-18T10:37:52.435Z,7.30
2023-01-18T10:40:19.400Z,7.30
2023-01-18T10:42:49.192Z,7.30
2023-01-18T10:45:22.234Z,7.40
2023-01-18T10:47:50.964Z,7.40
2023-01-18T10:50:33.752Z,7.40
2023-01-18T10:53:32.032Z,7.50
2023-01-18T10:56:10.877Z,7.50
2023-01-18T10:58:52.961Z,7.50
2023-01-18T11:01:23.557Z,7.50
2023-01-18T11:03:53.511Z,7.60
2023-01-18T11:06:21.837Z,7.60
2023-01-18T11:08:49.860Z,7.60
2023-01-18T11:11:51.162Z,7.60
2023-01-18T11:14:31.276Z,7.60
2023-01-18T11:16:59.396Z,7.70
2023-01-18T11:19:26.308Z,7.70
2023-01-18T11:21:53.951Z,7.80
2023-01-18T11:24:32.000Z,8.00
2023-01-18T11:27:05.735Z,8.10
2023-01-18T11:29:35.635Z,8.00
2023-01-18T11:32:06.755Z,8.00
2023-01-18T11:34:37.209Z,8.00
2023-01-18T11:37:05.254Z,8.10
2023-01-18T11:39:35.659Z,8.10
2023-01-18T11:42:14.916Z,8.10
2023-01-18T11:45:02.069Z,8.10
2023-01-18T11:47:51.963Z,8.20
2023-01-18T11:50:25.948Z,8.20
2023-01-18T11:52:55.933Z,8.20
2023-01-18T11:55:47.210Z,8.30
2023-01-18T11:58:28.436Z,8.30
2023-01-18T12:01:26.011Z,8.40
2023-01-18T12:04:11.922Z,8.50
2023-01-18T12:07:16.890Z,8.60
2023-01-18T12:09:55.937Z,8.70
2023-01-18T12:12:44.345Z,8.70
2023-01-18T12:15:44.339Z,8.70
2023-01-18T12:18:20.182Z,8.70
2023-01-18T12:20:53.796Z,8.70
2023-01-18T12:23:25.572Z,8.70
2023-01-18T12:26:12.253Z,8.70
2023-01-18T12:29:11.331Z,8.70
2023-01-18T12:31:44.452Z,8.80
2023-01-18T12:34:22.189Z,8.70
2023-01-18T12:37:10.259Z,8.70
2023-01-18T12:39:54.836Z,8.80
2023-01-18T12:42:50.593Z,8.70
2023-01-18T12:45:23.170Z,8.80
2023-01-18T12:48:01.659Z,8.70
2023-01-18T12:50:34.069Z,8.70
2023-01-18T12:53:07.256Z,8.70
2023-01-18T12:55:37.574Z,8.70
2023-01-18T12:58:05.141Z,8.80
2023-01-18T13:00:37.625Z,8.80
2023-01-18T13:03:17.975Z,8.90
2023-01-18T13:06:00.307Z,8.90
2023-01-18T13:08:58.464Z,8.80
2023-01-18T13:11:36.023Z,8.80
2023-01-18T13:14:11.982Z,8.70
2023-01-18T13:16:59.143Z,8.70
2023-01-18T13:19:35.985Z,8.80
2023-01-18T13:22:31.388Z,8.80
2023-01-18T13:25:19.315Z,8.90
2023-01-18T13:27:57.248Z,8.90
2023-01-18T13:30:25.375Z,8.90
2023-01-18T13:32:53.680Z,8.90
2023-01-18T13:35:33.943Z,8.90
2023-01-18T13:38:11.455Z,8.90
2023-01-18T13:40:58.754Z,9.00
2023-01-18T13:43:56.849Z,9.00
2023-01-18T13:46:25.808Z,8.90
2023-01-18T13:49:35.821Z,8.90
2023-01-18T13:52:35.514Z,8.90
2023-01-18T13:55:23.193Z,8.90
2023-01-18T13:57:55.546Z,8.80
2023-01-18T14:00:25.542Z,8.80
2023-01-18T14:03:02.119Z,8.70
2023-01-18T14:05:38.525Z,8.60
2023-01-18T14:08:06.428Z,8.60
2023-01-18T14:10:46.788Z,8.60
2023-01-18T14:13:17.988Z,8.50
2023-01-18T14:15:53.461Z,8.60
2023-01-18T14:18:24.425Z,8.50
2023-01-18T14:21:00.178Z,8.50
2023-01-18T14:23:35.931Z,8.50
2023-01-18T14:26:09.986Z,8.60
2023-01-18T14:29:00.913Z,8.50
2023-01-18T14:31:34.044Z,8.50
2023-01-18T14:34:32.838Z,8.40
2023-01-18T14:37:00.346Z,8.40
2023-01-18T14:39:30.110Z,8.40
2023-01-18T14:42:00.539Z,8.30
2023-01-18T14:44:57.305Z,8.30
2023-01-18T14:47:30.230Z,8.20
2023-01-18T14:49:57.614Z,8.10
2023-01-18T14:52:30.819Z,8.10
2023-01-18T14:54:57.775Z,8.00
2023-01-18T14:57:24.750Z,7.90
2023-01-18T14:59:57.106Z,7.80
2023-01-18T15:02:29.506Z,7.70
2023-01-18T15:05:22.692Z,7.60
2023-01-18T15:07:55.322Z,7.40
2023-01-18T15:10:24.317Z,7.30
2023-01-18T15:12:55.430Z,7.30
2023-01-18T15:15:27.858Z,7.20
2023-01-18T15:18:00.373Z,7.10
2023-01-18T15:20:27.678Z,7.10
2023-01-18T15:22:54.673Z,7.00
2023-01-18T15:25:28.909Z,6.90
2023-01-18T15:28:00.415Z,6.80
2023-01-18T15:30:32.182Z,6.70
2023-01-18T15:33:02.234Z,6.70
2023-01-18T15:38:05.084Z,6.50
2023-01-18T15:40:32.540Z,6.40
2023-01-18T15:43:44.460Z,6.40
2023-01-18T15:46:17.308Z,6.40
2023-01-18T15:48:49.111Z,6.30
2023-01-18T15:51:16.233Z,6.20
2023-01-18T15:53:56.139Z,6.20
2023-01-18T15:56:27.214Z,6.20
2023-01-18T15:58:57.137Z,6.10
2023-01-18T16:01:29.286Z,6.00
2023-01-18T16:04:09.839Z,6.00
2023-01-18T16:06:38.910Z,6.00
2023-01-18T16:09:13.780Z,6.00
2023-01-18T16:11:44.233Z,5.90
2023-01-18T16:14:28.971Z,6.00
2023-01-18T16:16:56.656Z,6.00
2023-01-18T16:19:45.916Z,6.00
2023-01-18T16:22:21.932Z,6.10
2023-01-18T16:25:07.444Z,6.10
2023-01-18T16:27:46.200Z,6.20
2023-01-18T16:30:26.235Z,6.20
2023-01-18T16:32:53.461Z,6.30
2023-01-18T16:35:22.718Z,6.30
2023-01-18T16:37:52.186Z,6.30
2023-01-18T16:40:22.343Z,6.20
2023-01-18T16:43:01.776Z,6.30
2023-01-18T16:45:31.894Z,6.30
2023-01-18T16:47:59.357Z,6.30
2023-01-18T16:50:27.407Z,6.30
2023-01-18T16:52:54.437Z,6.40
2023-01-18T16:55:23.088Z,6.30
2023-01-18T16:57:51.621Z,6.40
2023-01-18T17:00:25.025Z,6.40
2023-01-18T17:02:53.650Z,6.40
2023-01-18T17:05:21.535Z,6.50
2023-01-18T17:07:49.027Z,6.50
2023-01-18T17:10:31.580Z,6.50
2023-01-18T17:13:00.684Z,6.60
2023-01-18T17:15:31.127Z,6.60
2023-01-18T17:17:58.692Z,6.50
2023-01-18T17:20:27.414Z,6.60
2023-01-18T17:22:56.206Z,6.60
2023-01-18T17:25:24.702Z,6.60
2023-01-18T17:27:55.584Z,6.60
2023-01-18T17:30:23.311Z,6.70
2023-01-18T17:32:51.635Z,6.70
2023-01-18T17:35:24.962Z,6.70
2023-01-18T17:38:00.684Z,6.70
2023-01-18T17:40:39.597Z,6.70
2023-01-18T17:43:08.182Z,6.80
2023-01-18T17:45:35.396Z,6.80
2023-01-18T17:48:02.618Z,6.80
2023-01-18T17:50:30.266Z,6.70
2023-01-18T17:53:00.737Z,6.80
2023-01-18T17:55:34.693Z,6.80
2023-01-18T17:58:02.935Z,6.80
2023-01-18T18:00:30.536Z,6.80
2023-01-18T18:03:01.286Z,6.80
2023-01-18T18:05:30.184Z,6.80
2023-01-18T18:07:57.868Z,6.80
2023-01-18T18:10:25.657Z,6.90
2023-01-18T18:12:55.426Z,6.90
2023-01-18T18:15:24.129Z,6.80
2023-01-18T18:17:51.448Z,6.80
2023-01-18T18:20:19.357Z,6.80
2023-01-18T18:22:47.839Z,6.90
2023-01-18T18:25:15.577Z,6.90
2023-01-18T18:27:46.772Z,6.90
2023-01-18T18:30:15.459Z,6.90
2023-01-18T18:32:43.176Z,6.90
2023-01-18T18:35:26.625Z,6.80
2023-01-18T18:37:54.681Z,6.80
2023-01-18T18:40:22.546Z,6.80
2023-01-18T18:43:01.089Z,6.80
2023-01-18T18:45:35.679Z,6.90
2023-01-18T18:48:03.968Z,6.90
2023-01-18T18:50:32.170Z,6.90
2023-01-18T18:53:00.434Z,6.90
2023-01-18T18:55:28.267Z,6.90
2023-01-18T18:57:55.521Z,6.90
2023-01-18T19:00:24.705Z,6.80
2023-01-18T19:02:52.641Z,6.80
2023-01-18T19:05:20.792Z,6.80
2023-01-18T19:07:51.102Z,6.70
2023-01-18T19:10:19.612Z,6.70
2023-01-18T19:12:48.253Z,6.70
2023-01-18T19:15:15.704Z,6.60
2023-01-18T19:17:43.154Z,6.60
2023-01-18T19:20:14.225Z,6.50
2023-01-18T19:22:42.097Z,6.50
2023-01-18T19:25:10.298Z,6.50
2023-01-18T19:27:37.410Z,6.50
2023-01-18T19:30:11.162Z,6.50
2023-01-18T19:32:39.651Z,6.50
2023-01-18T19:35:09.193Z,6.50
2023-01-18T19:37:37.978Z,6.40
2023-01-18T19:40:06.605Z,6.40
2023-01-18T19:42:34.207Z,6.40
2023-01-18T19:45:03.913Z,6.30
2023-01-18T19:47:32.535Z,6.30
2023-01-18T19:50:03.038Z,6.30
2023-01-18T19:52:31.477Z,6.20
2023-01-18T19:54:59.946Z,6.20
2023-01-18T19:57:30.548Z,6.30
2023-01-18T19:59:59.168Z,6.20
2023-01-18T20:02:27.079Z,6.30
2023-01-18T20:04:55.624Z,6.20
2023-01-18T20:07:23.500Z,6.20
2023-01-18T20:09:54.002Z,6.20
2023-01-18T20:12:23.042Z,6.20
2023-01-18T20:14:50.829Z,6.20
2023-01-18T20:17:18.425Z,6.10
2023-01-18T20:19:50.958Z,6.00
2023-01-18T20:22:18.872Z,6.00
2023-01-18T20:24:46.756Z,6.00
2023-01-18T20:27:16.632Z,6.00
2023-01-18T20:29:44.769Z,6.00
2023-01-18T20:32:17.731Z,6.00
2023-01-18T20:34:49.943Z,6.00
2023-01-18T20:37:17.656Z,5.90
2023-01-18T20:39:45.477Z,5.90
2023-01-18T20:42:13.057Z,5.90
2023-01-18T20:44:41.494Z,5.90
2023-01-18T20:47:09.818Z,5.90
2023-01-18T20:49:39.015Z,6.00
2023-01-18T20:52:07.864Z,6.00
2023-01-18T20:54:36.771Z,6.00
2023-01-18T20:57:11.086Z,5.90
2023-01-18T20:59:38.692Z,6.00
2023-01-18T21:02:06.610Z,6.00
2023-01-18T21:04:34.013Z,6.10
2023-01-18T21:07:01.145Z,6.20
2023-01-18T21:09:28.731Z,6.20
2023-01-18T21:11:55.953Z,6.30
2023-01-18T21:14:23.056Z,6.30
2023-01-18T21:16:50.392Z,6.30
2023-01-18T21:19:18.251Z,6.20
2023-01-18T21:21:45.330Z,6.20
2023-01-18T21:24:12.483Z,6.20
2023-01-18T21:26:39.362Z,6.30
2023-01-18T21:29:06.354Z,6.30
2023-01-18T21:31:33.588Z,6.30
2023-01-18T21:34:00.700Z,6.30
2023-01-18T21:36:27.749Z,6.30
2023-01-18T21:38:55.232Z,6.30
2023-01-18T21:41:40.418Z,6.30
2023-01-18T21:44:25.850Z,6.20
2023-01-18T21:46:52.927Z,6.10
2023-01-18T21:50:10.993Z,6.00
2023-01-18T21:52:47.227Z,6.00
2023-01-18T21:55:15.415Z,5.90
2023-01-18T21:57:42.610Z,5.90
2023-01-18T22:00:10.496Z,6.00
2023-01-18T22:02:38.281Z,5.90
2023-01-18T22:05:05.627Z,5.90
2023-01-18T22:07:34.621Z,5.90
2023-01-18T22:10:05.704Z,6.00
2023-01-18T22:12:36.104Z,6.00
2023-01-18T22:15:05.116Z,6.00
2023-01-18T22:17:32.314Z,6.00
2023-01-18T22:20:00.369Z,6.00
2023-01-18T22:22:27.310Z,6.00
2023-01-18T22:24:54.264Z,6.00
2023-01-18T22:27:21.122Z,6.00
2023-01-18T22:29:48.198Z,6.00
2023-01-18T22:32:15.063Z,6.00
2023-01-18T22:34:41.921Z,6.00
2023-01-18T22:37:08.817Z,6.00
2023-01-18T22:39:35.743Z,5.90
2023-01-18T22:42:02.621Z,5.90
2023-01-18T22:44:29.567Z,5.90
2023-01-18T22:46:56.757Z,5.90
2023-01-18T22:49:23.628Z,5.80
2023-01-18T22:51:50.507Z,5.80
2023-01-18T22:54:22.309Z,5.80
2023-01-18T22:56:49.242Z,5.80
2023-01-18T22:59:16.181Z,5.80
2023-01-18T23:01:43.410Z,5.80
2023-01-18T23:04:10.467Z,5.80
2023-01-18T23:06:46.737Z,5.80
2023-01-18T23:09:15.770Z,5.80
2023-01-18T23:11:42.804Z,5.80
2023-01-18T23:14:28.170Z,5.80
2023-01-18T23:17:13.965Z,5.80
2023-01-18T23:19:40.862Z,5.80
2023-01-18T23:22:08.008Z,5.90
2023-01-18T23:24:36.576Z,5.80
2023-01-18T23:27:04.637Z,5.80
2023-01-18T23:29:31.697Z,5.90
2023-01-18T23:31:58.790Z,5.80
2023-01-18T23:34:25.970Z,5.90
2023-01-18T23:36:53.253Z,5.80
2023-01-18T23:39:38.606Z,5.80
2023-01-18T23:42:24.076Z,5.80
2023-01-18T23:45:09.697Z,5.80
2023-01-18T23:47:55.270Z,5.80
2023-01-18T23:50:41.191Z,5.70
2023-01-18T23:53:31.270Z,5.70
2023-01-18T23:55:58.620Z,5.70
2023-01-18T23:58:25.904Z,5.70
